sensor_id;sensor_type;location;lat;lon;timestamp;temperature;humidity
18906;DHT22;9585;51.018;4.282;2023-03-01T00:01:01;-1.00;99.90
18906;DHT22;9585;51.018;4.282;2023-03-01T00:03:31;-1.00;99.90
18906;DHT22;9585;51.018;4.282;2023-03-01T00:05:58;-0.90;99.90
18906;DHT22;9585;51.018;4.282;2023-03-01T00:08:26;-0.80;99.90
18906;DHT22;9585;51.018;4.282;2023-03-01T00:11:03;-0.70;99.90
18906;DHT22;9585;51.018;4.282;2023-03-01T00:13:31;-0.70;99.90
18906;DHT22;9585;51.018;4.282;2023-03-01T00:16:01;-0.80;99.90
18906;DHT22;9585;51.018;4.282;2023-03-01T00:18:29;-0.90;99.90
18906;DHT22;9585;51.018;4.282;2023-03-01T00:20:57;-1.00;99.90
18906;DHT22;9585;51.018;4.282;2023-03-01T00:23:25;-1.10;99.90
18906;DHT22;9585;51.018;4.282;2023-03-01T00:25:53;-1.20;99.90
18906;DHT22;9585;51.018;4.282;2023-03-01T00:28:21;-1.30;99.90
18906;DHT22;9585;51.018;4.282;2023-03-01T00:30:49;-1.30;99.90
18906;DHT22;9585;51.018;4.282;2023-03-01T00:33:16;-1.40;99.90
18906;DHT22;9585;51.018;4.282;2023-03-01T00:35:45;-1.50;99.90
18906;DHT22;9585;51.018;4.282;2023-03-01T00:38:13;-1.50;99.90
18906;DHT22;9585;51.018;4.282;2023-03-01T00:40:40;-1.60;99.90
18906;DHT22;9585;51.018;4.282;2023-03-01T00:43:08;-1.70;99.90
18906;DHT22;9585;51.018;4.282;2023-03-01T00:45:36;-1.70;99.90
18906;DHT22;9585;51.018;4.282;2023-03-01T00:48:03;-1.80;99.90
18906;DHT22;9585;51.018;4.282;2023-03-01T00:50:31;-1.90;99.90
18906;DHT22;9585;51.018;4.282;2023-03-01T00:53:01;-2.00;99.90
18906;DHT22;9585;51.018;4.282;2023-03-01T00:55:30;-2.00;99.90
18906;DHT22;9585;51.018;4.282;2023-03-01T00:57:58;-2.10;99.90
18906;DHT22;9585;51.018;4.282;2023-03-01T01:00:25;-2.00;99.90
18906;DHT22;9585;51.018;4.282;2023-03-01T01:02:53;-1.80;99.90
18906;DHT22;9585;51.018;4.282;2023-03-01T01:05:20;-1.80;99.90
18906;DHT22;9585;51.018;4.282;2023-03-01T01:07:48;-1.80;99.90
18906;DHT22;9585;51.018;4.282;2023-03-01T01:10:17;-1.80;99.90
18906;DHT22;9585;51.018;4.282;2023-03-01T01:12:48;-1.80;99.90
18906;DHT22;9585;51.018;4.282;2023-03-01T01:15:19;-1.90;99.90
18906;DHT22;9585;51.018;4.282;2023-03-01T01:18:02;-1.80;99.90
18906;DHT22;9585;51.018;4.282;2023-03-01T01:20:42;-1.70;99.90
18906;DHT22;9585;51.018;4.282;2023-03-01T01:23:21;-1.80;99.90
18906;DHT22;9585;51.018;4.282;2023-03-01T01:26:13;-1.80;99.90
18906;DHT22;9585;51.018;4.282;2023-03-01T01:28:55;-1.90;99.90
18906;DHT22;9585;51.018;4.282;2023-03-01T01:31:24;-2.00;99.90
18906;DHT22;9585;51.018;4.282;2023-03-01T01:33:55;-2.10;99.90
18906;DHT22;9585;51.018;4.282;2023-03-01T01:36:24;-2.20;99.90
18906;DHT22;9585;51.018;4.282;2023-03-01T01:38:55;-2.20;99.90
18906;DHT22;9585;51.018;4.282;2023-03-01T01:41:25;-2.30;99.90
18906;DHT22;9585;51.018;4.282;2023-03-01T01:44:12;-2.30;99.90
18906;DHT22;9585;51.018;4.282;2023-03-01T01:46:42;-2.30;99.90
18906;DHT22;9585;51.018;4.282;2023-03-01T01:49:19;-2.30;99.90
18906;DHT22;9585;51.018;4.282;2023-03-01T01:54:42;-2.10;99.90
18906;DHT22;9585;51.018;4.282;2023-03-01T01:58:04;-2.10;99.90
18906;DHT22;9585;51.018;4.282;2023-03-01T02:00:59;-2.10;99.90
18906;DHT22;9585;51.018;4.282;2023-03-01T02:04:15;-2.20;99.90
18906;DHT22;9585;51.018;4.282;2023-03-01T02:07:07;-2.30;99.90
18906;DHT22;9585;51.018;4.282;2023-03-01T03:08:56;-3.10;99.90
18906;DHT22;9585;51.018;4.282;2023-03-01T03:51:16;-2.70;99.90
18906;DHT22;9585;51.018;4.282;2023-03-01T03:54:15;-2.80;99.90
18906;DHT22;9585;51.018;4.282;2023-03-01T03:57:21;-2.70;99.90
18906;DHT22;9585;51.018;4.282;2023-03-01T04:00:22;-2.60;99.90
18906;DHT22;9585;51.018;4.282;2023-03-01T04:15:48;-2.80;99.90
18906;DHT22;9585;51.018;4.282;2023-03-01T04:18:49;-2.70;99.90
18906;DHT22;9585;51.018;4.282;2023-03-01T04:34:55;-2.90;99.90
18906;DHT22;9585;51.018;4.282;2023-03-01T04:37:31;-2.80;99.90
18906;DHT22;9585;51.018;4.282;2023-03-01T04:40:24;-2.80;99.90
18906;DHT22;9585;51.018;4.282;2023-03-01T04:42:56;-2.60;99.90
18906;DHT22;9585;51.018;4.282;2023-03-01T04:45:33;-2.60;99.90
18906;DHT22;9585;51.018;4.282;2023-03-01T04:48:19;-2.60;99.90
18906;DHT22;9585;51.018;4.282;2023-03-01T04:50:53;-2.60;99.90
18906;DHT22;9585;51.018;4.282;2023-03-01T04:53:50;-2.50;99.90
18906;DHT22;9585;51.018;4.282;2023-03-01T04:59:53;-2.50;99.90
18906;DHT22;9585;51.018;4.282;2023-03-01T05:02:23;-2.50;99.90
18906;DHT22;9585;51.018;4.282;2023-03-01T05:04:51;-2.50;99.90
18906;DHT22;9585;51.018;4.282;2023-03-01T05:07:27;-2.50;99.90
18906;DHT22;9585;51.018;4.282;2023-03-01T05:09:57;-2.40;99.90
18906;DHT22;9585;51.018;4.282;2023-03-01T05:12:27;-2.40;99.90
18906;DHT22;9585;51.018;4.282;2023-03-01T05:14:58;-2.40;99.90
18906;DHT22;9585;51.018;4.282;2023-03-01T05:17:28;-2.50;99.90
18906;DHT22;9585;51.018;4.282;2023-03-01T05:19:59;-2.50;99.90
18906;DHT22;9585;51.018;4.282;2023-03-01T05:22:28;-2.50;99.90
18906;DHT22;9585;51.018;4.282;2023-03-01T05:27:45;-2.50;99.90
18906;DHT22;9585;51.018;4.282;2023-03-01T05:30:17;-2.50;99.90
18906;DHT22;9585;51.018;4.282;2023-03-01T05:36:17;-2.50;99.90
18906;DHT22;9585;51.018;4.282;2023-03-01T05:39:03;-2.60;99.90
18906;DHT22;9585;51.018;4.282;2023-03-01T05:41:51;-2.60;99.90
18906;DHT22;9585;51.018;4.282;2023-03-01T05:44:53;-2.60;99.90
18906;DHT22;9585;51.018;4.282;2023-03-01T05:53:22;-2.80;99.90
18906;DHT22;9585;51.018;4.282;2023-03-01T05:56:54;-2.80;99.90
18906;DHT22;9585;51.018;4.282;2023-03-01T05:59:31;-2.70;99.90
18906;DHT22;9585;51.018;4.282;2023-03-01T06:01:58;-2.80;99.90
18906;DHT22;9585;51.018;4.282;2023-03-01T06:04:27;-2.70;99.90
18906;DHT22;9585;51.018;4.282;2023-03-01T06:06:55;-2.70;99.90
18906;DHT22;9585;51.018;4.282;2023-03-01T06:09:23;-2.60;99.90
18906;DHT22;9585;51.018;4.282;2023-03-01T06:11:55;-2.60;99.90
18906;DHT22;9585;51.018;4.282;2023-03-01T06:14:26;-2.50;99.90
18906;DHT22;9585;51.018;4.282;2023-03-01T06:16:54;-2.60;99.90
18906;DHT22;9585;51.018;4.282;2023-03-01T06:19:21;-2.60;99.90
18906;DHT22;9585;51.018;4.282;2023-03-01T06:21:52;-2.70;99.90
18906;DHT22;9585;51.018;4.282;2023-03-01T06:24:19;-2.60;99.90
18906;DHT22;9585;51.018;4.282;2023-03-01T06:26:47;-2.70;99.90
18906;DHT22;9585;51.018;4.282;2023-03-01T06:29:18;-2.70;99.90
18906;DHT22;9585;51.018;4.282;2023-03-01T06:31:45;-2.60;99.90
18906;DHT22;9585;51.018;4.282;2023-03-01T06:34:13;-2.60;99.90
18906;DHT22;9585;51.018;4.282;2023-03-01T06:36:41;-2.50;99.90
18906;DHT22;9585;51.018;4.282;2023-03-01T06:49:54;-2.60;99.90
18906;DHT22;9585;51.018;4.282;2023-03-01T06:52:57;-2.50;99.90
18906;DHT22;9585;51.018;4.282;2023-03-01T06:55:38;-2.10;99.90
18906;DHT22;9585;51.018;4.282;2023-03-01T06:58:23;-1.90;99.90
18906;DHT22;9585;51.018;4.282;2023-03-01T07:00:53;-1.70;99.90
18906;DHT22;9585;51.018;4.282;2023-03-01T07:03:28;-1.40;99.90
18906;DHT22;9585;51.018;4.282;2023-03-01T07:06:02;-1.10;99.90
18906;DHT22;9585;51.018;4.282;2023-03-01T07:11:57;-0.40;99.90
18906;DHT22;9585;51.018;4.282;2023-03-01T07:14:38;-0.20;99.90
18906;DHT22;9585;51.018;4.282;2023-03-01T07:19:42;0.10;99.90
18906;DHT22;9585;51.018;4.282;2023-03-01T07:22:12;0.40;99.90
18906;DHT22;9585;51.018;4.282;2023-03-01T07:24:40;0.50;99.90
18906;DHT22;9585;51.018;4.282;2023-03-01T07:27:18;0.50;99.90
18906;DHT22;9585;51.018;4.282;2023-03-01T07:29:46;1.10;99.90
18906;DHT22;9585;51.018;4.282;2023-03-01T07:32:13;1.20;99.90
18906;DHT22;9585;51.018;4.282;2023-03-01T07:34:41;1.80;99.90
18906;DHT22;9585;51.018;4.282;2023-03-01T07:37:08;2.50;99.90
18906;DHT22;9585;51.018;4.282;2023-03-01T07:39:37;2.70;99.90
18906;DHT22;9585;51.018;4.282;2023-03-01T07:42:07;3.10;99.90
18906;DHT22;9585;51.018;4.282;2023-03-01T07:44:38;3.00;99.90
18906;DHT22;9585;51.018;4.282;2023-03-01T07:47:06;3.50;99.90
18906;DHT22;9585;51.018;4.282;2023-03-01T07:49:34;3.60;99.90
18906;DHT22;9585;51.018;4.282;2023-03-01T07:52:01;3.80;99.90
18906;DHT22;9585;51.018;4.282;2023-03-01T07:54:29;3.70;99.90
18906;DHT22;9585;51.018;4.282;2023-03-01T07:56:58;3.40;99.90
18906;DHT22;9585;51.018;4.282;2023-03-01T07:59:25;3.20;99.90
18906;DHT22;9585;51.018;4.282;2023-03-01T08:01:54;3.30;99.90
18906;DHT22;9585;51.018;4.282;2023-03-01T08:04:22;3.40;99.90
18906;DHT22;9585;51.018;4.282;2023-03-01T08:06:50;3.60;99.90
18906;DHT22;9585;51.018;4.282;2023-03-01T08:09:18;3.40;99.90
18906;DHT22;9585;51.018;4.282;2023-03-01T08:11:50;3.50;99.90
18906;DHT22;9585;51.018;4.282;2023-03-01T08:14:19;3.30;99.90
18906;DHT22;9585;51.018;4.282;2023-03-01T08:16:49;3.10;99.90
18906;DHT22;9585;51.018;4.282;2023-03-01T08:19:17;3.00;99.90
18906;DHT22;9585;51.018;4.282;2023-03-01T08:21:44;3.30;99.90
18906;DHT22;9585;51.018;4.282;2023-03-01T08:24:12;3.10;99.90
18906;DHT22;9585;51.018;4.282;2023-03-01T08:26:39;3.40;99.90
18906;DHT22;9585;51.018;4.282;2023-03-01T08:29:07;3.30;99.90
18906;DHT22;9585;51.018;4.282;2023-03-01T08:31:37;2.90;99.90
18906;DHT22;9585;51.018;4.282;2023-03-01T08:34:06;2.80;99.90
18906;DHT22;9585;51.018;4.282;2023-03-01T08:36:36;2.70;99.90
18906;DHT22;9585;51.018;4.282;2023-03-01T08:39:04;2.60;99.90
18906;DHT22;9585;51.018;4.282;2023-03-01T08:41:31;2.70;99.90
18906;DHT22;9585;51.018;4.282;2023-03-01T08:43:59;2.70;99.90
18906;DHT22;9585;51.018;4.282;2023-03-01T08:46:27;2.60;99.90
18906;DHT22;9585;51.018;4.282;2023-03-01T08:48:56;2.30;99.90
18906;DHT22;9585;51.018;4.282;2023-03-01T08:51:24;2.00;99.90
18906;DHT22;9585;51.018;4.282;2023-03-01T08:53:52;2.10;99.90
18906;DHT22;9585;51.018;4.282;2023-03-01T08:56:20;1.90;99.90
18906;DHT22;9585;51.018;4.282;2023-03-01T08:58:48;2.10;99.90
18906;DHT22;9585;51.018;4.282;2023-03-01T09:01:18;2.00;99.90
18906;DHT22;9585;51.018;4.282;2023-03-01T09:03:46;2.00;99.90
18906;DHT22;9585;51.018;4.282;2023-03-01T09:06:15;1.50;99.90
18906;DHT22;9585;51.018;4.282;2023-03-01T09:08:43;1.60;99.90
18906;DHT22;9585;51.018;4.282;2023-03-01T09:11:15;2.00;99.90
18906;DHT22;9585;51.018;4.282;2023-03-01T09:13:43;2.00;99.90
18906;DHT22;9585;51.018;4.282;2023-03-01T09:16:12;1.70;99.90
18906;DHT22;9585;51.018;4.282;2023-03-01T09:18:39;1.50;99.90
18906;DHT22;9585;51.018;4.282;2023-03-01T09:21:08;1.30;99.90
18906;DHT22;9585;51.018;4.282;2023-03-01T09:23:40;1.50;99.90
18906;DHT22;9585;51.018;4.282;2023-03-01T09:26:08;1.50;99.90
18906;DHT22;9585;51.018;4.282;2023-03-01T09:28:36;1.40;99.90
18906;DHT22;9585;51.018;4.282;2023-03-01T09:31:04;1.60;99.90
18906;DHT22;9585;51.018;4.282;2023-03-01T09:33:33;2.00;99.90
18906;DHT22;9585;51.018;4.282;2023-03-01T09:36:01;2.10;99.90
18906;DHT22;9585;51.018;4.282;2023-03-01T09:38:30;1.80;99.90
18906;DHT22;9585;51.018;4.282;2023-03-01T09:40:59;2.00;99.90
18906;DHT22;9585;51.018;4.282;2023-03-01T09:43:31;2.20;99.90
18906;DHT22;9585;51.018;4.282;2023-03-01T09:46:04;2.20;99.90
18906;DHT22;9585;51.018;4.282;2023-03-01T09:48:37;2.50;99.90
18906;DHT22;9585;51.018;4.282;2023-03-01T09:53:52;2.60;99.90
18906;DHT22;9585;51.018;4.282;2023-03-01T09:56:32;2.50;99.90
18906;DHT22;9585;51.018;4.282;2023-03-01T09:59:10;2.40;99.90
18906;DHT22;9585;51.018;4.282;2023-03-01T10:01:48;2.60;99.90
18906;DHT22;9585;51.018;4.282;2023-03-01T10:04:28;2.50;99.90
18906;DHT22;9585;51.018;4.282;2023-03-01T10:07:10;2.80;99.90
18906;DHT22;9585;51.018;4.282;2023-03-01T10:09:42;3.10;99.90
18906;DHT22;9585;51.018;4.282;2023-03-01T10:12:12;3.40;99.90
18906;DHT22;9585;51.018;4.282;2023-03-01T10:14:48;3.70;99.90
18906;DHT22;9585;51.018;4.282;2023-03-01T10:17:26;3.40;99.90
18906;DHT22;9585;51.018;4.282;2023-03-01T10:19:55;3.40;99.90
18906;DHT22;9585;51.018;4.282;2023-03-01T10:22:27;3.00;99.90
18906;DHT22;9585;51.018;4.282;2023-03-01T10:24:58;3.00;99.90
18906;DHT22;9585;51.018;4.282;2023-03-01T10:27:35;3.40;99.90
18906;DHT22;9585;51.018;4.282;2023-03-01T10:30:12;3.50;99.90
18906;DHT22;9585;51.018;4.282;2023-03-01T10:32:42;3.70;99.90
18906;DHT22;9585;51.018;4.282;2023-03-01T10:35:17;3.80;99.90
18906;DHT22;9585;51.018;4.282;2023-03-01T10:38:04;3.90;99.90
18906;DHT22;9585;51.018;4.282;2023-03-01T10:40:34;4.10;99.90
18906;DHT22;9585;51.018;4.282;2023-03-01T10:43:04;4.20;99.90
18906;DHT22;9585;51.018;4.282;2023-03-01T10:45:36;4.50;99.90
18906;DHT22;9585;51.018;4.282;2023-03-01T10:48:08;4.70;99.90
18906;DHT22;9585;51.018;4.282;2023-03-01T10:50:38;4.50;99.90
18906;DHT22;9585;51.018;4.282;2023-03-01T10:53:27;4.10;99.90
18906;DHT22;9585;51.018;4.282;2023-03-01T10:56:04;3.80;99.90
18906;DHT22;9585;51.018;4.282;2023-03-01T10:58:34;3.80;99.90
18906;DHT22;9585;51.018;4.282;2023-03-01T11:01:04;3.90;99.90
18906;DHT22;9585;51.018;4.282;2023-03-01T11:03:33;4.10;99.90
18906;DHT22;9585;51.018;4.282;2023-03-01T11:06:04;4.50;99.90
18906;DHT22;9585;51.018;4.282;2023-03-01T11:08:35;4.60;99.90
18906;DHT22;9585;51.018;4.282;2023-03-01T11:11:25;4.90;99.90
18906;DHT22;9585;51.018;4.282;2023-03-01T11:14:00;5.30;99.90
18906;DHT22;9585;51.018;4.282;2023-03-01T11:16:34;5.40;99.90
18906;DHT22;9585;51.018;4.282;2023-03-01T11:19:21;5.10;99.90
18906;DHT22;9585;51.018;4.282;2023-03-01T11:21:55;4.80;99.90
18906;DHT22;9585;51.018;4.282;2023-03-01T11:24:29;5.00;99.90
18906;DHT22;9585;51.018;4.282;2023-03-01T11:27:03;4.70;99.90
18906;DHT22;9585;51.018;4.282;2023-03-01T11:29:36;4.80;99.90
18906;DHT22;9585;51.018;4.282;2023-03-01T11:32:08;5.10;99.90
18906;DHT22;9585;51.018;4.282;2023-03-01T11:34:42;5.40;99.90
18906;DHT22;9585;51.018;4.282;2023-03-01T11:37:42;5.50;99.90
18906;DHT22;9585;51.018;4.282;2023-03-01T11:40:15;5.80;99.90
18906;DHT22;9585;51.018;4.282;2023-03-01T11:42:59;5.90;99.90
18906;DHT22;9585;51.018;4.282;2023-03-01T11:45:36;6.00;99.90
18906;DHT22;9585;51.018;4.282;2023-03-01T11:48:17;5.70;99.90
18906;DHT22;9585;51.018;4.282;2023-03-01T11:50:52;5.70;99.90
18906;DHT22;9585;51.018;4.282;2023-03-01T11:53:30;5.80;99.90
18906;DHT22;9585;51.018;4.282;2023-03-01T11:56:09;6.00;99.90
18906;DHT22;9585;51.018;4.282;2023-03-01T11:58:58;6.00;99.90
18906;DHT22;9585;51.018;4.282;2023-03-01T12:01:37;5.60;99.90
18906;DHT22;9585;51.018;4.282;2023-03-01T12:04:29;5.30;99.90
18906;DHT22;9585;51.018;4.282;2023-03-01T12:07:05;5.00;99.90
18906;DHT22;9585;51.018;4.282;2023-03-01T12:09:53;5.10;99.90
18906;DHT22;9585;51.018;4.282;2023-03-01T12:12:30;5.20;99.90
18906;DHT22;9585;51.018;4.282;2023-03-01T12:15:29;5.30;99.90
18906;DHT22;9585;51.018;4.282;2023-03-01T12:18:27;5.60;99.90
18906;DHT22;9585;51.018;4.282;2023-03-01T12:21:05;5.50;99.90
18906;DHT22;9585;51.018;4.282;2023-03-01T12:24:02;4.70;99.90
18906;DHT22;9585;51.018;4.282;2023-03-01T12:26:35;4.70;99.90
18906;DHT22;9585;51.018;4.282;2023-03-01T12:29:18;4.90;99.90
18906;DHT22;9585;51.018;4.282;2023-03-01T12:32:09;4.90;99.90
18906;DHT22;9585;51.018;4.282;2023-03-01T12:35:00;5.20;99.90
18906;DHT22;9585;51.018;4.282;2023-03-01T12:37:35;5.10;99.90
18906;DHT22;9585;51.018;4.282;2023-03-01T12:40:28;5.10;99.90
18906;DHT22;9585;51.018;4.282;2023-03-01T12:43:12;5.30;99.90
18906;DHT22;9585;51.018;4.282;2023-03-01T12:46:01;5.70;99.90
18906;DHT22;9585;51.018;4.282;2023-03-01T12:48:43;6.20;99.90
18906;DHT22;9585;51.018;4.282;2023-03-01T12:51:15;6.30;99.90
18906;DHT22;9585;51.018;4.282;2023-03-01T12:53:46;6.30;99.90
18906;DHT22;9585;51.018;4.282;2023-03-01T12:56:17;6.30;99.90
18906;DHT22;9585;51.018;4.282;2023-03-01T12:58:54;6.20;99.90
18906;DHT22;9585;51.018;4.282;2023-03-01T13:01:33;6.10;99.90
18906;DHT22;9585;51.018;4.282;2023-03-01T13:04:16;6.10;99.90
18906;DHT22;9585;51.018;4.282;2023-03-01T13:06:53;5.90;99.90
18906;DHT22;9585;51.018;4.282;2023-03-01T13:09:29;6.00;99.90
18906;DHT22;9585;51.018;4.282;2023-03-01T13:11:58;6.10;99.90
18906;DHT22;9585;51.018;4.282;2023-03-01T13:14:45;5.80;99.90
18906;DHT22;9585;51.018;4.282;2023-03-01T13:17:31;6.00;99.90
18906;DHT22;9585;51.018;4.282;2023-03-01T13:19:59;6.00;99.90
18906;DHT22;9585;51.018;4.282;2023-03-01T13:22:30;6.10;99.90
18906;DHT22;9585;51.018;4.282;2023-03-01T13:25:12;6.10;99.90
18906;DHT22;9585;51.018;4.282;2023-03-01T13:27:46;6.30;99.90
18906;DHT22;9585;51.018;4.282;2023-03-01T13:30:38;6.40;99.90
18906;DHT22;9585;51.018;4.282;2023-03-01T13:33:33;6.20;99.90
18906;DHT22;9585;51.018;4.282;2023-03-01T13:36:02;6.10;99.90
18906;DHT22;9585;51.018;4.282;2023-03-01T13:38:46;6.10;99.90
18906;DHT22;9585;51.018;4.282;2023-03-01T13:41:14;5.80;99.90
18906;DHT22;9585;51.018;4.282;2023-03-01T13:43:43;5.60;99.90
18906;DHT22;9585;51.018;4.282;2023-03-01T13:46:16;5.90;99.90
18906;DHT22;9585;51.018;4.282;2023-03-01T13:48:49;6.20;99.90
18906;DHT22;9585;51.018;4.282;2023-03-01T13:51:21;6.40;99.90
18906;DHT22;9585;51.018;4.282;2023-03-01T13:53:53;6.10;99.90
18906;DHT22;9585;51.018;4.282;2023-03-01T13:56:24;6.20;99.90
18906;DHT22;9585;51.018;4.282;2023-03-01T13:58:56;6.20;99.90
18906;DHT22;9585;51.018;4.282;2023-03-01T14:01:28;6.10;99.90
18906;DHT22;9585;51.018;4.282;2023-03-01T14:03:55;6.20;99.90
18906;DHT22;9585;51.018;4.282;2023-03-01T14:06:25;6.70;99.90
18906;DHT22;9585;51.018;4.282;2023-03-01T14:09:09;6.80;99.90
18906;DHT22;9585;51.018;4.282;2023-03-01T14:12:06;6.60;99.90
18906;DHT22;9585;51.018;4.282;2023-03-01T14:14:48;6.40;99.90
18906;DHT22;9585;51.018;4.282;2023-03-01T14:17:34;6.60;99.90
18906;DHT22;9585;51.018;4.282;2023-03-01T14:20:12;6.80;99.90
18906;DHT22;9585;51.018;4.282;2023-03-01T14:22:42;6.90;99.90
18906;DHT22;9585;51.018;4.282;2023-03-01T14:25:26;6.70;99.90
18906;DHT22;9585;51.018;4.282;2023-03-01T14:28:02;6.40;99.90
18906;DHT22;9585;51.018;4.282;2023-03-01T14:30:36;6.20;99.90
18906;DHT22;9585;51.018;4.282;2023-03-01T14:33:16;6.10;99.90
18906;DHT22;9585;51.018;4.282;2023-03-01T14:35:53;6.30;99.90
18906;DHT22;9585;51.018;4.282;2023-03-01T14:38:21;6.50;99.90
18906;DHT22;9585;51.018;4.282;2023-03-01T14:40:54;6.70;99.90
18906;DHT22;9585;51.018;4.282;2023-03-01T14:43:24;6.70;99.90
18906;DHT22;9585;51.018;4.282;2023-03-01T14:45:52;6.40;99.90
18906;DHT22;9585;51.018;4.282;2023-03-01T14:48:20;6.50;99.90
18906;DHT22;9585;51.018;4.282;2023-03-01T14:50:47;6.40;99.90
18906;DHT22;9585;51.018;4.282;2023-03-01T14:53:17;6.40;99.90
18906;DHT22;9585;51.018;4.282;2023-03-01T14:55:48;6.00;99.90
18906;DHT22;9585;51.018;4.282;2023-03-01T14:58:21;6.00;99.90
18906;DHT22;9585;51.018;4.282;2023-03-01T15:00:52;6.30;99.90
18906;DHT22;9585;51.018;4.282;2023-03-01T15:03:27;6.30;99.90
18906;DHT22;9585;51.018;4.282;2023-03-01T15:05:57;6.20;99.90
18906;DHT22;9585;51.018;4.282;2023-03-01T15:08:25;6.10;99.90
18906;DHT22;9585;51.018;4.282;2023-03-01T15:11:04;6.40;99.90
18906;DHT22;9585;51.018;4.282;2023-03-01T15:13:34;6.00;99.90
18906;DHT22;9585;51.018;4.282;2023-03-01T15:16:05;5.80;99.90
18906;DHT22;9585;51.018;4.282;2023-03-01T15:18:34;6.10;99.90
18906;DHT22;9585;51.018;4.282;2023-03-01T15:21:08;6.50;99.90
18906;DHT22;9585;51.018;4.282;2023-03-01T15:23:37;6.40;99.90
18906;DHT22;9585;51.018;4.282;2023-03-01T15:26:05;6.50;99.90
18906;DHT22;9585;51.018;4.282;2023-03-01T15:28:37;6.40;99.90
18906;DHT22;9585;51.018;4.282;2023-03-01T15:31:16;6.00;99.90
18906;DHT22;9585;51.018;4.282;2023-03-01T15:33:45;5.70;99.90
18906;DHT22;9585;51.018;4.282;2023-03-01T15:36:36;5.50;99.90
18906;DHT22;9585;51.018;4.282;2023-03-01T15:39:30;5.40;99.90
18906;DHT22;9585;51.018;4.282;2023-03-01T15:41:59;5.50;99.90
18906;DHT22;9585;51.018;4.282;2023-03-01T15:44:29;5.80;99.90
18906;DHT22;9585;51.018;4.282;2023-03-01T15:46:57;6.00;99.90
18906;DHT22;9585;51.018;4.282;2023-03-01T15:49:37;6.00;99.90
18906;DHT22;9585;51.018;4.282;2023-03-01T15:52:10;5.90;99.90
18906;DHT22;9585;51.018;4.282;2023-03-01T15:54:39;5.70;99.90
18906;DHT22;9585;51.018;4.282;2023-03-01T15:57:12;5.70;99.90
18906;DHT22;9585;51.018;4.282;2023-03-01T15:59:42;5.70;99.90
18906;DHT22;9585;51.018;4.282;2023-03-01T16:02:10;5.70;99.90
18906;DHT22;9585;51.018;4.282;2023-03-01T16:04:38;5.50;99.90
18906;DHT22;9585;51.018;4.282;2023-03-01T16:07:06;5.50;99.90
18906;DHT22;9585;51.018;4.282;2023-03-01T16:09:33;5.60;99.90
18906;DHT22;9585;51.018;4.282;2023-03-01T16:12:00;5.50;99.90
18906;DHT22;9585;51.018;4.282;2023-03-01T16:14:28;5.60;99.90
18906;DHT22;9585;51.018;4.282;2023-03-01T16:16:56;5.60;99.90
18906;DHT22;9585;51.018;4.282;2023-03-01T16:19:24;5.60;99.90
18906;DHT22;9585;51.018;4.282;2023-03-01T16:21:51;5.50;99.90
18906;DHT22;9585;51.018;4.282;2023-03-01T16:24:18;5.50;99.90
18906;DHT22;9585;51.018;4.282;2023-03-01T16:26:46;5.50;99.90
18906;DHT22;9585;51.018;4.282;2023-03-01T16:29:13;5.50;99.90
18906;DHT22;9585;51.018;4.282;2023-03-01T16:31:41;5.40;99.90
18906;DHT22;9585;51.018;4.282;2023-03-01T16:34:10;5.40;99.90
18906;DHT22;9585;51.018;4.282;2023-03-01T16:36:37;5.50;99.90
18906;DHT22;9585;51.018;4.282;2023-03-01T16:39:13;5.40;99.90
18906;DHT22;9585;51.018;4.282;2023-03-01T16:41:40;5.30;99.90
18906;DHT22;9585;51.018;4.282;2023-03-01T16:44:08;5.20;99.90
18906;DHT22;9585;51.018;4.282;2023-03-01T16:46:43;5.10;99.90
18906;DHT22;9585;51.018;4.282;2023-03-01T16:49:12;5.30;99.90
18906;DHT22;9585;51.018;4.282;2023-03-01T16:51:39;5.30;99.90
18906;DHT22;9585;51.018;4.282;2023-03-01T16:54:08;5.20;99.90
18906;DHT22;9585;51.018;4.282;2023-03-01T16:56:36;5.00;99.90
18906;DHT22;9585;51.018;4.282;2023-03-01T16:59:05;5.00;99.90
18906;DHT22;9585;51.018;4.282;2023-03-01T17:01:33;4.80;99.90
18906;DHT22;9585;51.018;4.282;2023-03-01T17:04:03;4.80;99.90
18906;DHT22;9585;51.018;4.282;2023-03-01T17:06:32;4.80;99.90
18906;DHT22;9585;51.018;4.282;2023-03-01T17:09:00;4.80;99.90
18906;DHT22;9585;51.018;4.282;2023-03-01T17:11:27;4.70;99.90
18906;DHT22;9585;51.018;4.282;2023-03-01T17:13:55;4.70;99.90
18906;DHT22;9585;51.018;4.282;2023-03-01T17:16:27;4.60;99.90
18906;DHT22;9585;51.018;4.282;2023-03-01T17:18:54;4.60;99.90
18906;DHT22;9585;51.018;4.282;2023-03-01T17:21:22;4.60;99.90
18906;DHT22;9585;51.018;4.282;2023-03-01T17:23:56;4.50;99.90
18906;DHT22;9585;51.018;4.282;2023-03-01T17:26:23;4.40;99.90
18906;DHT22;9585;51.018;4.282;2023-03-01T17:28:55;4.20;99.90
18906;DHT22;9585;51.018;4.282;2023-03-01T17:31:24;4.20;99.90
18906;DHT22;9585;51.018;4.282;2023-03-01T17:33:51;4.10;99.90
18906;DHT22;9585;51.018;4.282;2023-03-01T17:36:19;4.00;99.90
18906;DHT22;9585;51.018;4.282;2023-03-01T17:38:58;4.00;99.90
18906;DHT22;9585;51.018;4.282;2023-03-01T17:41:25;4.00;99.90
18906;DHT22;9585;51.018;4.282;2023-03-01T17:43:56;4.00;99.90
18906;DHT22;9585;51.018;4.282;2023-03-01T17:46:27;3.80;99.90
18906;DHT22;9585;51.018;4.282;2023-03-01T17:49:03;3.70;99.90
18906;DHT22;9585;51.018;4.282;2023-03-01T17:51:39;3.60;99.90
18906;DHT22;9585;51.018;4.282;2023-03-01T17:54:11;3.60;99.90
18906;DHT22;9585;51.018;4.282;2023-03-01T17:56:41;3.60;99.90
18906;DHT22;9585;51.018;4.282;2023-03-01T17:59:17;3.50;99.90
18906;DHT22;9585;51.018;4.282;2023-03-01T18:01:47;3.50;99.90
18906;DHT22;9585;51.018;4.282;2023-03-01T18:04:27;3.30;99.90
18906;DHT22;9585;51.018;4.282;2023-03-01T18:06:55;3.20;99.90
18906;DHT22;9585;51.018;4.282;2023-03-01T18:09:25;3.10;99.90
18906;DHT22;9585;51.018;4.282;2023-03-01T18:11:56;3.10;99.90
18906;DHT22;9585;51.018;4.282;2023-03-01T18:14:28;2.90;99.90
18906;DHT22;9585;51.018;4.282;2023-03-01T18:16:58;2.90;99.90
18906;DHT22;9585;51.018;4.282;2023-03-01T18:19:27;2.90;99.90
18906;DHT22;9585;51.018;4.282;2023-03-01T18:22:06;2.80;99.90
18906;DHT22;9585;51.018;4.282;2023-03-01T18:24:41;2.80;99.90
18906;DHT22;9585;51.018;4.282;2023-03-01T18:27:11;2.70;99.90
18906;DHT22;9585;51.018;4.282;2023-03-01T18:29:41;2.70;99.90
18906;DHT22;9585;51.018;4.282;2023-03-01T18:32:14;2.60;99.90
18906;DHT22;9585;51.018;4.282;2023-03-01T18:34:42;2.60;99.90
18906;DHT22;9585;51.018;4.282;2023-03-01T18:37:10;2.50;99.90
18906;DHT22;9585;51.018;4.282;2023-03-01T18:39:56;2.50;99.90
18906;DHT22;9585;51.018;4.282;2023-03-01T18:42:29;2.40;99.90
18906;DHT22;9585;51.018;4.282;2023-03-01T18:45:13;2.40;99.90
18906;DHT22;9585;51.018;4.282;2023-03-01T18:47:42;2.30;99.90
18906;DHT22;9585;51.018;4.282;2023-03-01T18:50:10;2.20;99.90
18906;DHT22;9585;51.018;4.282;2023-03-01T18:55:34;2.20;99.90
18906;DHT22;9585;51.018;4.282;2023-03-01T18:58:02;2.20;99.90
18906;DHT22;9585;51.018;4.282;2023-03-01T19:00:47;2.20;99.90
18906;DHT22;9585;51.018;4.282;2023-03-01T19:03:25;2.10;99.90
18906;DHT22;9585;51.018;4.282;2023-03-01T19:06:11;2.10;99.90
18906;DHT22;9585;51.018;4.282;2023-03-01T19:08:38;2.00;99.90
18906;DHT22;9585;51.018;4.282;2023-03-01T19:11:40;2.00;99.90
18906;DHT22;9585;51.018;4.282;2023-03-01T19:14:09;2.00;99.90
18906;DHT22;9585;51.018;4.282;2023-03-01T19:16:38;1.90;99.90
18906;DHT22;9585;51.018;4.282;2023-03-01T19:19:06;1.80;99.90
18906;DHT22;9585;51.018;4.282;2023-03-01T19:21:35;1.80;99.90
18906;DHT22;9585;51.018;4.282;2023-03-01T19:24:03;1.70;99.90
18906;DHT22;9585;51.018;4.282;2023-03-01T19:26:30;1.60;99.90